sensor_id;sensor_type;location;lat;lon;timestamp;P1;durP1;ratioP1;P2;durP2;ratioP2
3625;SDS011;1827;50.534;8.316;2022-12-29T00:00:18;13.73;;;2.57;;
3625;SDS011;1827;50.534;8.316;2022-12-29T00:02:47;18.87;;;2.60;;
3625;SDS011;1827;50.534;8.316;2022-12-29T00:05:12;14.27;;;2.60;;
3625;SDS011;1827;50.534;8.316;2022-12-29T00:07:38;18.17;;;2.63;;
3625;SDS011;1827;50.534;8.316;2022-12-29T00:10:06;14.73;;;2.63;;
3625;SDS011;1827;50.534;8.316;2022-12-29T00:12:35;13.40;;;2.50;;
3625;SDS011;1827;50.534;8.316;2022-12-29T00:15:20;14.03;;;2.87;;
3625;SDS011;1827;50.534;8.316;2022-12-29T00:18:07;13.33;;;2.50;;
3625;SDS011;1827;50.534;8.316;2022-12-29T00:20:36;15.97;;;2.73;;
3625;SDS011;1827;50.534;8.316;2022-12-29T00:23:23;16.67;;;3.17;;
3625;SDS011;1827;50.534;8.316;2022-12-29T00:26:13;15.70;;;2.87;;
3625;SDS011;1827;50.534;8.316;2022-12-29T00:29:01;14.93;;;2.67;;
3625;SDS011;1827;50.534;8.316;2022-12-29T00:31:47;13.87;;;2.50;;
3625;SDS011;1827;50.534;8.316;2022-12-29T00:34:31;15.57;;;2.90;;
3625;SDS011;1827;50.534;8.316;2022-12-29T00:37:17;14.20;;;2.73;;
3625;SDS011;1827;50.534;8.316;2022-12-29T00:40:07;13.67;;;2.90;;
3625;SDS011;1827;50.534;8.316;2022-12-29T00:42:55;14.20;;;2.80;;
3625;SDS011;1827;50.534;8.316;2022-12-29T00:45:41;14.50;;;2.57;;
3625;SDS011;1827;50.534;8.316;2022-12-29T00:48:09;14.80;;;2.60;;
3625;SDS011;1827;50.534;8.316;2022-12-29T00:50:36;13.57;;;2.77;;
3625;SDS011;1827;50.534;8.316;2022-12-29T00:53:06;15.77;;;3.23;;
3625;SDS011;1827;50.534;8.316;2022-12-29T00:55:35;19.20;;;2.80;;
3625;SDS011;1827;50.534;8.316;2022-12-29T00:58:03;15.17;;;2.77;;
3625;SDS011;1827;50.534;8.316;2022-12-29T01:00:29;15.43;;;3.17;;
3625;SDS011;1827;50.534;8.316;2022-12-29T01:02:54;16.60;;;3.00;;
3625;SDS011;1827;50.534;8.316;2022-12-29T01:05:22;13.97;;;2.70;;
3625;SDS011;1827;50.534;8.316;2022-12-29T01:07:47;13.87;;;2.70;;
3625;SDS011;1827;50.534;8.316;2022-12-29T01:10:14;13.87;;;2.40;;
3625;SDS011;1827;50.534;8.316;2022-12-29T01:12:41;14.33;;;2.77;;
3625;SDS011;1827;50.534;8.316;2022-12-29T01:15:10;15.13;;;3.00;;
3625;SDS011;1827;50.534;8.316;2022-12-29T01:17:42;14.87;;;3.17;;
3625;SDS011;1827;50.534;8.316;2022-12-29T01:20:08;13.87;;;2.83;;
3625;SDS011;1827;50.534;8.316;2022-12-29T01:22:35;13.43;;;2.70;;
3625;SDS011;1827;50.534;8.316;2022-12-29T01:25:02;14.20;;;2.90;;
3625;SDS011;1827;50.534;8.316;2022-12-29T01:27:28;15.70;;;3.23;;
3625;SDS011;1827;50.534;8.316;2022-12-29T01:29:54;17.10;;;3.10;;
3625;SDS011;1827;50.534;8.316;2022-12-29T01:32:20;15.50;;;2.90;;
3625;SDS011;1827;50.534;8.316;2022-12-29T01:34:49;15.60;;;2.63;;
3625;SDS011;1827;50.534;8.316;2022-12-29T01:37:14;13.90;;;2.90;;
3625;SDS011;1827;50.534;8.316;2022-12-29T01:39:40;20.00;;;2.67;;
3625;SDS011;1827;50.534;8.316;2022-12-29T01:42:18;13.70;;;2.47;;
3625;SDS011;1827;50.534;8.316;2022-12-29T01:44:52;13.47;;;2.80;;
3625;SDS011;1827;50.534;8.316;2022-12-29T01:50:05;17.23;;;2.33;;
3625;SDS011;1827;50.534;8.316;2022-12-29T01:52:36;17.33;;;3.40;;
3625;SDS011;1827;50.534;8.316;2022-12-29T01:55:08;14.53;;;2.80;;
3625;SDS011;1827;50.534;8.316;2022-12-29T01:57:43;13.90;;;2.93;;
3625;SDS011;1827;50.534;8.316;2022-12-29T02:00:14;15.73;;;3.00;;
3625;SDS011;1827;50.534;8.316;2022-12-29T02:02:46;15.10;;;2.60;;
3625;SDS011;1827;50.534;8.316;2022-12-29T02:05:33;14.20;;;2.60;;
3625;SDS011;1827;50.534;8.316;2022-12-29T02:08:16;13.97;;;2.83;;
3625;SDS011;1827;50.534;8.316;2022-12-29T02:10:50;14.23;;;2.60;;
3625;SDS011;1827;50.534;8.316;2022-12-29T02:13:16;13.60;;;2.80;;
3625;SDS011;1827;50.534;8.316;2022-12-29T02:30:11;14.80;;;2.90;;
3625;SDS011;1827;50.534;8.316;2022-12-29T02:36:07;15.27;;;2.60;;
3625;SDS011;1827;50.534;8.316;2022-12-29T02:47:41;15.00;;;2.57;;
3625;SDS011;1827;50.534;8.316;2022-12-29T02:50:26;13.47;;;2.60;;
3625;SDS011;1827;50.534;8.316;2022-12-29T02:53:27;13.80;;;2.70;;
3625;SDS011;1827;50.534;8.316;2022-12-29T02:56:18;17.37;;;2.93;;
3625;SDS011;1827;50.534;8.316;2022-12-29T02:58:46;15.27;;;3.00;;
3625;SDS011;1827;50.534;8.316;2022-12-29T03:06:50;13.20;;;2.77;;
3625;SDS011;1827;50.534;8.316;2022-12-29T03:15:18;13.10;;;2.53;;
3625;SDS011;1827;50.534;8.316;2022-12-29T03:19:04;13.90;;;2.80;;
3625;SDS011;1827;50.534;8.316;2022-12-29T03:21:36;13.17;;;2.83;;
3625;SDS011;1827;50.534;8.316;2022-12-29T03:24:31;13.90;;;2.90;;
3625;SDS011;1827;50.534;8.316;2022-12-29T03:27:02;14.00;;;3.00;;
3625;SDS011;1827;50.534;8.316;2022-12-29T03:29:46;13.60;;;3.20;;
3625;SDS011;1827;50.534;8.316;2022-12-29T03:32:23;14.17;;;2.90;;
3625;SDS011;1827;50.534;8.316;2022-12-29T03:35:04;13.43;;;3.10;;
3625;SDS011;1827;50.534;8.316;2022-12-29T03:37:38;17.10;;;3.10;;
3625;SDS011;1827;50.534;8.316;2022-12-29T03:40:09;13.43;;;3.23;;
3625;SDS011;1827;50.534;8.316;2022-12-29T03:42:40;13.57;;;2.87;;
3625;SDS011;1827;50.534;8.316;2022-12-29T03:45:13;14.47;;;2.90;;
3625;SDS011;1827;50.534;8.316;2022-12-29T03:55:10;13.53;;;3.10;;
3625;SDS011;1827;50.534;8.316;2022-12-29T04:20:08;12.97;;;2.63;;
3625;SDS011;1827;50.534;8.316;2022-12-29T04:22:59;14.00;;;2.50;;
3625;SDS011;1827;50.534;8.316;2022-12-29T04:25:35;12.77;;;2.60;;
3625;SDS011;1827;50.534;8.316;2022-12-29T04:28:03;16.03;;;2.53;;
3625;SDS011;1827;50.534;8.316;2022-12-29T04:31:06;12.57;;;2.20;;
3625;SDS011;1827;50.534;8.316;2022-12-29T04:33:38;13.30;;;2.93;;
3625;SDS011;1827;50.534;8.316;2022-12-29T04:36:11;13.30;;;3.00;;
3625;SDS011;1827;50.534;8.316;2022-12-29T04:38:39;13.10;;;2.40;;
3625;SDS011;1827;50.534;8.316;2022-12-29T04:41:06;12.17;;;1.73;;
3625;SDS011;1827;50.534;8.316;2022-12-29T04:43:38;14.33;;;2.00;;
3625;SDS011;1827;50.534;8.316;2022-12-29T04:46:27;12.57;;;2.13;;
3625;SDS011;1827;50.534;8.316;2022-12-29T04:48:59;13.30;;;2.30;;
3625;SDS011;1827;50.534;8.316;2022-12-29T04:51:55;12.53;;;2.10;;
3625;SDS011;1827;50.534;8.316;2022-12-29T04:54:23;16.63;;;2.33;;
3625;SDS011;1827;50.534;8.316;2022-12-29T04:57:01;15.47;;;2.60;;
3625;SDS011;1827;50.534;8.316;2022-12-29T04:59:29;14.10;;;2.73;;
3625;SDS011;1827;50.534;8.316;2022-12-29T05:01:59;12.70;;;2.47;;
3625;SDS011;1827;50.534;8.316;2022-12-29T05:04:26;14.30;;;2.70;;
3625;SDS011;1827;50.534;8.316;2022-12-29T05:06:54;19.43;;;2.40;;
3625;SDS011;1827;50.534;8.316;2022-12-29T05:09:20;14.80;;;2.60;;
3625;SDS011;1827;50.534;8.316;2022-12-29T05:11:54;15.63;;;2.73;;
3625;SDS011;1827;50.534;8.316;2022-12-29T05:14:20;14.17;;;2.70;;
3625;SDS011;1827;50.534;8.316;2022-12-29T05:22:03;13.93;;;2.80;;
3625;SDS011;1827;50.534;8.316;2022-12-29T05:24:33;15.93;;;3.00;;
3625;SDS011;1827;50.534;8.316;2022-12-29T05:27:05;15.20;;;3.10;;
3625;SDS011;1827;50.534;8.316;2022-12-29T05:29:46;17.10;;;2.90;;
3625;SDS011;1827;50.534;8.316;2022-12-29T05:32:13;14.47;;;3.07;;
3625;SDS011;1827;50.534;8.316;2022-12-29T05:34:42;15.17;;;3.40;;
3625;SDS011;1827;50.534;8.316;2022-12-29T05:37:10;15.20;;;3.00;;
3625;SDS011;1827;50.534;8.316;2022-12-29T05:39:41;14.10;;;3.50;;
3625;SDS011;1827;50.534;8.316;2022-12-29T05:42:10;15.37;;;3.23;;
3625;SDS011;1827;50.534;8.316;2022-12-29T05:44:47;14.33;;;3.47;;
3625;SDS011;1827;50.534;8.316;2022-12-29T05:47:45;14.80;;;3.27;;
3625;SDS011;1827;50.534;8.316;2022-12-29T05:50:47;14.23;;;3.30;;
3625;SDS011;1827;50.534;8.316;2022-12-29T05:53:15;16.63;;;3.30;;
3625;SDS011;1827;50.534;8.316;2022-12-29T05:55:42;15.30;;;3.40;;
3625;SDS011;1827;50.534;8.316;2022-12-29T05:58:09;16.13;;;3.50;;
3625;SDS011;1827;50.534;8.316;2022-12-29T06:00:39;17.40;;;3.33;;
3625;SDS011;1827;50.534;8.316;2022-12-29T06:03:17;15.23;;;3.50;;
3625;SDS011;1827;50.534;8.316;2022-12-29T06:05:44;15.77;;;3.13;;
3625;SDS011;1827;50.534;8.316;2022-12-29T06:08:11;15.57;;;3.60;;
3625;SDS011;1827;50.534;8.316;2022-12-29T06:10:40;16.00;;;3.53;;
3625;SDS011;1827;50.534;8.316;2022-12-29T06:13:07;23.40;;;3.77;;
3625;SDS011;1827;50.534;8.316;2022-12-29T06:15:39;14.43;;;3.70;;
3625;SDS011;1827;50.534;8.316;2022-12-29T06:18:14;16.20;;;3.13;;
3625;SDS011;1827;50.534;8.316;2022-12-29T06:20:40;13.93;;;2.87;;
3625;SDS011;1827;50.534;8.316;2022-12-29T06:23:06;16.43;;;3.13;;
3625;SDS011;1827;50.534;8.316;2022-12-29T06:25:33;14.30;;;2.70;;
3625;SDS011;1827;50.534;8.316;2022-12-29T06:28:01;15.30;;;3.80;;
3625;SDS011;1827;50.534;8.316;2022-12-29T06:30:28;16.03;;;3.00;;
3625;SDS011;1827;50.534;8.316;2022-12-29T06:32:53;17.00;;;3.47;;
3625;SDS011;1827;50.534;8.316;2022-12-29T06:35:20;15.63;;;3.07;;
3625;SDS011;1827;50.534;8.316;2022-12-29T06:37:49;15.13;;;3.30;;
3625;SDS011;1827;50.534;8.316;2022-12-29T06:40:18;14.40;;;3.53;;
3625;SDS011;1827;50.534;8.316;2022-12-29T06:43:35;14.07;;;3.10;;
3625;SDS011;1827;50.534;8.316;2022-12-29T06:46:07;14.60;;;3.10;;
3625;SDS011;1827;50.534;8.316;2022-12-29T06:49:23;15.23;;;3.17;;
3625;SDS011;1827;50.534;8.316;2022-12-29T06:51:49;15.63;;;2.90;;
3625;SDS011;1827;50.534;8.316;2022-12-29T06:54:20;14.03;;;3.27;;
3625;SDS011;1827;50.534;8.316;2022-12-29T06:56:46;13.60;;;2.80;;
3625;SDS011;1827;50.534;8.316;2022-12-29T07:02:11;14.60;;;3.20;;
3625;SDS011;1827;50.534;8.316;2022-12-29T07:04:39;14.00;;;2.90;;
3625;SDS011;1827;50.534;8.316;2022-12-29T07:07:17;13.80;;;2.70;;
3625;SDS011;1827;50.534;8.316;2022-12-29T07:09:43;14.20;;;3.33;;
3625;SDS011;1827;50.534;8.316;2022-12-29T07:12:12;19.83;;;3.07;;
3625;SDS011;1827;50.534;8.316;2022-12-29T07:14:38;15.97;;;3.60;;
3625;SDS011;1827;50.534;8.316;2022-12-29T07:17:04;14.50;;;3.43;;
3625;SDS011;1827;50.534;8.316;2022-12-29T07:19:31;16.97;;;3.30;;
3625;SDS011;1827;50.534;8.316;2022-12-29T07:21:58;16.00;;;3.30;;
3625;SDS011;1827;50.534;8.316;2022-12-29T07:24:24;14.47;;;3.03;;
3625;SDS011;1827;50.534;8.316;2022-12-29T07:26:51;13.50;;;2.20;;
3625;SDS011;1827;50.534;8.316;2022-12-29T07:29:17;14.87;;;2.93;;
3625;SDS011;1827;50.534;8.316;2022-12-29T07:31:42;15.03;;;2.90;;
3625;SDS011;1827;50.534;8.316;2022-12-29T07:34:08;14.50;;;3.30;;
3625;SDS011;1827;50.534;8.316;2022-12-29T07:36:34;14.60;;;2.60;;
3625;SDS011;1827;50.534;8.316;2022-12-29T07:39:00;15.40;;;2.83;;
3625;SDS011;1827;50.534;8.316;2022-12-29T07:41:26;13.90;;;2.53;;
3625;SDS011;1827;50.534;8.316;2022-12-29T07:43:52;13.47;;;2.53;;
3625;SDS011;1827;50.534;8.316;2022-12-29T07:46:44;23.03;;;2.53;;
3625;SDS011;1827;50.534;8.316;2022-12-29T07:49:09;14.40;;;2.60;;
3625;SDS011;1827;50.534;8.316;2022-12-29T07:51:35;14.50;;;2.50;;
3625;SDS011;1827;50.534;8.316;2022-12-29T07:54:00;13.83;;;2.27;;
3625;SDS011;1827;50.534;8.316;2022-12-29T07:56:26;12.57;;;2.07;;
3625;SDS011;1827;50.534;8.316;2022-12-29T07:58:52;13.27;;;2.10;;
3625;SDS011;1827;50.534;8.316;2022-12-29T08:01:18;15.77;;;2.83;;
3625;SDS011;1827;50.534;8.316;2022-12-29T08:03:43;14.37;;;2.53;;
3625;SDS011;1827;50.534;8.316;2022-12-29T08:06:09;15.83;;;2.37;;
3625;SDS011;1827;50.534;8.316;2022-12-29T08:08:35;13.47;;;2.70;;
3625;SDS011;1827;50.534;8.316;2022-12-29T08:11:01;14.80;;;2.80;;
3625;SDS011;1827;50.534;8.316;2022-12-29T08:13:27;17.70;;;3.03;;
3625;SDS011;1827;50.534;8.316;2022-12-29T08:15:53;15.70;;;2.97;;
3625;SDS011;1827;50.534;8.316;2022-12-29T08:18:18;14.10;;;2.77;;
3625;SDS011;1827;50.534;8.316;2022-12-29T08:20:44;12.63;;;2.50;;
3625;SDS011;1827;50.534;8.316;2022-12-29T08:23:16;12.63;;;2.33;;
3625;SDS011;1827;50.534;8.316;2022-12-29T08:25:44;12.73;;;2.33;;
3625;SDS011;1827;50.534;8.316;2022-12-29T08:28:13;12.47;;;2.10;;
3625;SDS011;1827;50.534;8.316;2022-12-29T08:30:42;12.77;;;2.10;;
3625;SDS011;1827;50.534;8.316;2022-12-29T08:33:23;14.00;;;2.00;;
3625;SDS011;1827;50.534;8.316;2022-12-29T08:36:24;12.13;;;1.80;;
3625;SDS011;1827;50.534;8.316;2022-12-29T08:38:53;11.70;;;1.73;;
3625;SDS011;1827;50.534;8.316;2022-12-29T08:41:40;12.90;;;2.10;;
3625;SDS011;1827;50.534;8.316;2022-12-29T08:44:06;12.17;;;1.80;;
3625;SDS011;1827;50.534;8.316;2022-12-29T08:46:35;17.13;;;2.10;;
3625;SDS011;1827;50.534;8.316;2022-12-29T08:49:01;13.23;;;1.70;;
3625;SDS011;1827;50.534;8.316;2022-12-29T08:51:32;20.17;;;1.97;;
3625;SDS011;1827;50.534;8.316;2022-12-29T08:53:58;14.73;;;2.10;;
3625;SDS011;1827;50.534;8.316;2022-12-29T08:56:30;12.60;;;1.80;;
3625;SDS011;1827;50.534;8.316;2022-12-29T08:59:06;12.60;;;1.90;;
3625;SDS011;1827;50.534;8.316;2022-12-29T09:01:41;12.37;;;1.73;;
3625;SDS011;1827;50.534;8.316;2022-12-29T09:04:07;12.77;;;1.80;;
3625;SDS011;1827;50.534;8.316;2022-12-29T09:06:39;13.00;;;1.50;;
3625;SDS011;1827;50.534;8.316;2022-12-29T09:09:39;11.77;;;1.57;;
3625;SDS011;1827;50.534;8.316;2022-12-29T09:12:05;14.43;;;1.83;;
3625;SDS011;1827;50.534;8.316;2022-12-29T09:14:36;17.20;;;1.90;;
3625;SDS011;1827;50.534;8.316;2022-12-29T09:17:10;15.00;;;1.63;;
3625;SDS011;1827;50.534;8.316;2022-12-29T09:19:54;11.70;;;1.53;;
3625;SDS011;1827;50.534;8.316;2022-12-29T09:22:20;16.50;;;2.10;;
3625;SDS011;1827;50.534;8.316;2022-12-29T09:24:46;24.13;;;4.10;;
3625;SDS011;1827;50.534;8.316;2022-12-29T09:27:12;15.50;;;1.87;;
3625;SDS011;1827;50.534;8.316;2022-12-29T09:29:39;14.57;;;1.80;;
3625;SDS011;1827;50.534;8.316;2022-12-29T09:32:04;12.57;;;1.90;;
3625;SDS011;1827;50.534;8.316;2022-12-29T09:34:30;12.83;;;1.73;;
3625;SDS011;1827;50.534;8.316;2022-12-29T09:36:56;15.37;;;1.87;;
3625;SDS011;1827;50.534;8.316;2022-12-29T09:39:22;22.03;;;3.27;;
3625;SDS011;1827;50.534;8.316;2022-12-29T09:41:49;14.80;;;2.27;;
3625;SDS011;1827;50.534;8.316;2022-12-29T09:47:28;14.73;;;2.20;;
3625;SDS011;1827;50.534;8.316;2022-12-29T09:50:02;15.23;;;1.93;;
3625;SDS011;1827;50.534;8.316;2022-12-29T09:52:50;13.97;;;1.80;;
3625;SDS011;1827;50.534;8.316;2022-12-29T09:55:35;14.30;;;1.80;;
3625;SDS011;1827;50.534;8.316;2022-12-29T10:00:49;14.70;;;2.43;;
3625;SDS011;1827;50.534;8.316;2022-12-29T10:03:22;13.63;;;2.03;;
3625;SDS011;1827;50.534;8.316;2022-12-29T10:17:19;20.17;;;3.80;;
3625;SDS011;1827;50.534;8.316;2022-12-29T10:25:47;12.10;;;1.67;;
3625;SDS011;1827;50.534;8.316;2022-12-29T10:28:29;12.50;;;1.80;;
3625;SDS011;1827;50.534;8.316;2022-12-29T10:31:15;13.50;;;1.57;;
3625;SDS011;1827;50.534;8.316;2022-12-29T10:33:46;15.07;;;2.17;;
3625;SDS011;1827;50.534;8.316;2022-12-29T10:36:33;16.90;;;2.10;;
3625;SDS011;1827;50.534;8.316;2022-12-29T10:44:31;14.83;;;2.00;;
3625;SDS011;1827;50.534;8.316;2022-12-29T10:46:58;14.90;;;1.80;;
3625;SDS011;1827;50.534;8.316;2022-12-29T10:49:29;17.27;;;2.10;;
3625;SDS011;1827;50.534;8.316;2022-12-29T10:51:58;14.40;;;2.30;;
3625;SDS011;1827;50.534;8.316;2022-12-29T11:00:00;13.10;;;1.90;;
3625;SDS011;1827;50.534;8.316;2022-12-29T11:05:40;13.00;;;1.93;;
3625;SDS011;1827;50.534;8.316;2022-12-29T11:11:43;14.77;;;1.87;;
3625;SDS011;1827;50.534;8.316;2022-12-29T11:24:27;15.60;;;2.60;;
3625;SDS011;1827;50.534;8.316;2022-12-29T11:27:18;13.97;;;2.23;;
3625;SDS011;1827;50.534;8.316;2022-12-29T11:29:53;14.10;;;2.40;;
3625;SDS011;1827;50.534;8.316;2022-12-29T11:32:21;13.97;;;2.33;;
3625;SDS011;1827;50.534;8.316;2022-12-29T11:34:57;13.50;;;2.00;;
3625;SDS011;1827;50.534;8.316;2022-12-29T11:37:30;15.10;;;2.30;;
3625;SDS011;1827;50.534;8.316;2022-12-29T11:40:17;12.70;;;1.80;;
3625;SDS011;1827;50.534;8.316;2022-12-29T11:42:50;12.53;;;1.83;;
3625;SDS011;1827;50.534;8.316;2022-12-29T11:45:22;19.83;;;2.53;;
3625;SDS011;1827;50.534;8.316;2022-12-29T11:48:01;22.23;;;3.50;;
3625;SDS011;1827;50.534;8.316;2022-12-29T11:50:37;15.20;;;2.80;;
3625;SDS011;1827;50.534;8.316;2022-12-29T11:55:51;27.00;;;3.23;;
3625;SDS011;1827;50.534;8.316;2022-12-29T11:58:30;27.40;;;2.73;;
3625;SDS011;1827;50.534;8.316;2022-12-29T12:04:04;28.87;;;3.87;;
3625;SDS011;1827;50.534;8.316;2022-12-29T12:06:36;15.00;;;2.63;;
3625;SDS011;1827;50.534;8.316;2022-12-29T12:09:33;15.17;;;2.50;;
3625;SDS011;1827;50.534;8.316;2022-12-29T12:15:17;21.20;;;2.50;;
3625;SDS011;1827;50.534;8.316;2022-12-29T12:26:37;15.83;;;2.20;;
3625;SDS011;1827;50.534;8.316;2022-12-29T12:29:11;16.30;;;1.93;;
3625;SDS011;1827;50.534;8.316;2022-12-29T12:31:49;16.50;;;2.00;;
3625;SDS011;1827;50.534;8.316;2022-12-29T12:34:22;20.67;;;2.97;;
3625;SDS011;1827;50.534;8.316;2022-12-29T12:39:36;20.37;;;1.87;;
3625;SDS011;1827;50.534;8.316;2022-12-29T12:45:31;13.60;;;1.83;;
3625;SDS011;1827;50.534;8.316;2022-12-29T12:48:28;20.93;;;2.13;;
3625;SDS011;1827;50.534;8.316;2022-12-29T12:54:21;15.67;;;2.13;;
3625;SDS011;1827;50.534;8.316;2022-12-29T13:02:29;21.73;;;2.17;;
3625;SDS011;1827;50.534;8.316;2022-12-29T13:07:55;24.93;;;2.00;;
3625;SDS011;1827;50.534;8.316;2022-12-29T13:33:55;23.50;;;2.63;;
3625;SDS011;1827;50.534;8.316;2022-12-29T13:36:48;13.77;;;1.90;;
3625;SDS011;1827;50.534;8.316;2022-12-29T13:39:35;15.80;;;2.07;;
3625;SDS011;1827;50.534;8.316;2022-12-29T13:42:27;15.03;;;1.90;;
3625;SDS011;1827;50.534;8.316;2022-12-29T13:44:59;16.00;;;2.00;;
3625;SDS011;1827;50.534;8.316;2022-12-29T13:47:57;14.67;;;1.80;;
3625;SDS011;1827;50.534;8.316;2022-12-29T13:50:25;16.53;;;1.97;;
3625;SDS011;1827;50.534;8.316;2022-12-29T13:56:02;22.47;;;2.50;;
3625;SDS011;1827;50.534;8.316;2022-12-29T13:58:31;15.17;;;1.70;;
3625;SDS011;1827;50.534;8.316;2022-12-29T14:01:24;18.63;;;2.20;;
3625;SDS011;1827;50.534;8.316;2022-12-29T14:04:09;19.30;;;2.40;;
3625;SDS011;1827;50.534;8.316;2022-12-29T14:06:39;19.53;;;2.03;;
3625;SDS011;1827;50.534;8.316;2022-12-29T14:12:21;16.90;;;1.80;;
3625;SDS011;1827;50.534;8.316;2022-12-29T14:17:45;17.80;;;2.40;;
3625;SDS011;1827;50.534;8.316;2022-12-29T14:20:33;16.97;;;2.00;;
3625;SDS011;1827;50.534;8.316;2022-12-29T14:28:34;17.77;;;1.93;;
3625;SDS011;1827;50.534;8.316;2022-12-29T14:31:32;18.70;;;2.37;;
3625;SDS011;1827;50.534;8.316;2022-12-29T14:36:41;18.67;;;2.20;;
3625;SDS011;1827;50.534;8.316;2022-12-29T14:44:57;16.13;;;2.37;;
3625;SDS011;1827;50.534;8.316;2022-12-29T14:47:47;18.17;;;2.77;;
3625;SDS011;1827;50.534;8.316;2022-12-29T14:50:38;22.17;;;2.80;;
3625;SDS011;1827;50.534;8.316;2022-12-29T14:56:20;17.70;;;2.07;;
3625;SDS011;1827;50.534;8.316;2022-12-29T14:58:53;17.97;;;2.33;;
3625;SDS011;1827;50.534;8.316;2022-12-29T15:01:45;18.43;;;2.20;;
3625;SDS011;1827;50.534;8.316;2022-12-29T15:06:45;21.30;;;2.67;;
3625;SDS011;1827;50.534;8.316;2022-12-29T15:09:33;17.13;;;2.20;;
3625;SDS011;1827;50.534;8.316;2022-12-29T15:12:12;16.33;;;2.40;;
3625;SDS011;1827;50.534;8.316;2022-12-29T15:14:53;16.13;;;2.20;;
3625;SDS011;1827;50.534;8.316;2022-12-29T15:17:30;18.73;;;2.13;;
3625;SDS011;1827;50.534;8.316;2022-12-29T15:20:14;23.10;;;3.70;;
3625;SDS011;1827;50.534;8.316;2022-12-29T15:23:15;18.30;;;2.40;;
3625;SDS011;1827;50.534;8.316;2022-12-29T15:28:43;18.30;;;2.50;;
3625;SDS011;1827;50.534;8.316;2022-12-29T15:34:23;19.23;;;3.17;;
3625;SDS011;1827;50.534;8.316;2022-12-29T15:36:52;18.33;;;2.50;;
3625;SDS011;1827;50.534;8.316;2022-12-29T15:39:23;19.20;;;2.80;;
3625;SDS011;1827;50.534;8.316;2022-12-29T15:47:21;20.07;;;3.27;;
3625;SDS011;1827;50.534;8.316;2022-12-29T15:49:53;20.20;;;3.10;;
3625;SDS011;1827;50.534;8.316;2022-12-29T15:52:31;20.63;;;3.23;;
3625;SDS011;1827;50.534;8.316;2022-12-29T15:55:01;17.90;;;2.80;;
3625;SDS011;1827;50.534;8.316;2022-12-29T15:57:35;21.43;;;3.43;;
3625;SDS011;1827;50.534;8.316;2022-12-29T16:00:17;16.53;;;2.50;;
3625;SDS011;1827;50.534;8.316;2022-12-29T16:02:54;20.93;;;2.80;;
3625;SDS011;1827;50.534;8.316;2022-12-29T16:05:31;20.23;;;3.17;;
3625;SDS011;1827;50.534;8.316;2022-12-29T16:08:20;19.83;;;2.93;;
3625;SDS011;1827;50.534;8.316;2022-12-29T16:10:51;24.40;;;3.60;;
3625;SDS011;1827;50.534;8.316;2022-12-29T16:16:12;20.90;;;3.40;;
3625;SDS011;1827;50.534;8.316;2022-12-29T16:18:46;20.93;;;3.03;;
3625;SDS011;1827;50.534;8.316;2022-12-29T16:21:20;28.13;;;2.67;;
3625;SDS011;1827;50.534;8.316;2022-12-29T16:24:13;23.53;;;2.93;;
3625;SDS011;1827;50.534;8.316;2022-12-29T16:26:54;20.17;;;2.77;;
3625;SDS011;1827;50.534;8.316;2022-12-29T16:29:33;18.30;;;2.73;;
3625;SDS011;1827;50.534;8.316;2022-12-29T16:32:19;21.13;;;3.57;;
3625;SDS011;1827;50.534;8.316;2022-12-29T16:35:11;23.23;;;4.10;;
3625;SDS011;1827;50.534;8.316;2022-12-29T16:37:45;24.10;;;4.30;;
3625;SDS011;1827;50.534;8.316;2022-12-29T16:43:01;26.40;;;5.60;;
3625;SDS011;1827;50.534;8.316;2022-12-29T16:50:41;26.80;;;7.27;;
3625;SDS011;1827;50.534;8.316;2022-12-29T16:55:52;31.70;;;9.70;;
3625;SDS011;1827;50.534;8.316;2022-12-29T16:58:26;42.57;;;11.87;;
3625;SDS011;1827;50.534;8.316;2022-12-29T17:01:03;36.20;;;10.90;;
3625;SDS011;1827;50.534;8.316;2022-12-29T17:03:54;64.40;;;20.40;;
3625;SDS011;1827;50.534;8.316;2022-12-29T17:06:36;63.80;;;19.70;;
3625;SDS011;1827;50.534;8.316;2022-12-29T17:09:29;19.97;;;3.80;;
3625;SDS011;1827;50.534;8.316;2022-12-29T17:12:01;20.27;;;3.30;;
3625;SDS011;1827;50.534;8.316;2022-12-29T17:19:57;26.20;;;3.60;;
3625;SDS011;1827;50.534;8.316;2022-12-29T17:22:32;26.20;;;3.13;;
3625;SDS011;1827;50.534;8.316;2022-12-29T17:24:59;16.80;;;2.93;;
3625;SDS011;1827;50.534;8.316;2022-12-29T17:27:35;24.50;;;3.47;;
3625;SDS011;1827;50.534;8.316;2022-12-29T17:30:22;24.30;;;3.33;;
3625;SDS011;1827;50.534;8.316;2022-12-29T17:35:25;17.63;;;2.60;;
3625;SDS011;1827;50.534;8.316;2022-12-29T17:37:54;19.57;;;4.03;;
3625;SDS011;1827;50.534;8.316;2022-12-29T17:40:23;22.07;;;3.80;;
3625;SDS011;1827;50.534;8.316;2022-12-29T17:42:57;26.03;;;4.13;;
3625;SDS011;1827;50.534;8.316;2022-12-29T17:45:29;20.30;;;3.93;;
3625;SDS011;1827;50.534;8.316;2022-12-29T17:47:58;22.07;;;3.83;;
3625;SDS011;1827;50.534;8.316;2022-12-29T17:50:27;20.90;;;3.60;;
3625;SDS011;1827;50.534;8.316;2022-12-29T17:53:01;17.37;;;3.30;;
3625;SDS011;1827;50.534;8.316;2022-12-29T17:55:31;21.90;;;3.87;;
3625;SDS011;1827;50.534;8.316;2022-12-29T17:58:01;32.83;;;3.30;;
3625;SDS011;1827;50.534;8.316;2022-12-29T18:00:36;21.67;;;3.00;;
3625;SDS011;1827;50.534;8.316;2022-12-29T18:03:03;25.87;;;2.97;;
3625;SDS011;1827;50.534;8.316;2022-12-29T18:05:32;20.00;;;2.87;;
3625;SDS011;1827;50.534;8.316;2022-12-29T18:08:00;18.07;;;3.00;;
3625;SDS011;1827;50.534;8.316;2022-12-29T18:10:27;17.67;;;2.80;;
3625;SDS011;1827;50.534;8.316;2022-12-29T18:12:54;18.37;;;2.70;;
3625;SDS011;1827;50.534;8.316;2022-12-29T18:15:25;20.13;;;2.50;;
3625;SDS011;1827;50.534;8.316;2022-12-29T18:18:01;26.93;;;2.87;;
3625;SDS011;1827;50.534;8.316;2022-12-29T18:20:36;14.30;;;2.33;;
3625;SDS011;1827;50.534;8.316;2022-12-29T18:23:02;17.00;;;2.90;;
3625;SDS011;1827;50.534;8.316;2022-12-29T18:28:08;19.53;;;3.53;;
3625;SDS011;1827;50.534;8.316;2022-12-29T18:30:34;22.83;;;3.20;;
3625;SDS011;1827;50.534;8.316;2022-12-29T18:33:01;24.63;;;4.33;;
3625;SDS011;1827;50.534;8.316;2022-12-29T18:35:33;25.63;;;4.00;;
3625;SDS011;1827;50.534;8.316;2022-12-29T18:38:06;24.83;;;4.17;;
3625;SDS011;1827;50.534;8.316;2022-12-29T18:40:33;22.83;;;4.03;;
3625;SDS011;1827;50.534;8.316;2022-12-29T18:43:01;26.03;;;5.07;;
3625;SDS011;1827;50.534;8.316;2022-12-29T18:45:29;28.20;;;4.20;;
3625;SDS011;1827;50.534;8.316;2022-12-29T18:47:57;22.13;;;3.50;;
3625;SDS011;1827;50.534;8.316;2022-12-29T18:50:29;19.80;;;3.53;;
3625;SDS011;1827;50.534;8.316;2022-12-29T18:52:58;23.47;;;3.53;;
3625;SDS011;1827;50.534;8.316;2022-12-29T18:55:26;22.50;;;3.70;;
3625;SDS011;1827;50.534;8.316;2022-12-29T18:57:52;22.63;;;3.97;;
3625;SDS011;1827;50.534;8.316;2022-12-29T19:00:22;22.93;;;3.53;;
3625;SDS011;1827;50.534;8.316;2022-12-29T19:02:49;22.73;;;3.90;;
3625;SDS011;1827;50.534;8.316;2022-12-29T19:05:23;26.30;;;5.07;;
3625;SDS011;1827;50.534;8.316;2022-12-29T19:07:53;21.93;;;3.90;;
3625;SDS011;1827;50.534;8.316;2022-12-29T19:10:21;24.07;;;4.27;;
3625;SDS011;1827;50.534;8.316;2022-12-29T19:12:51;38.33;;;4.77;;
3625;SDS011;1827;50.534;8.316;2022-12-29T19:15:21;19.80;;;4.13;;
3625;SDS011;1827;50.534;8.316;2022-12-29T19:17:52;22.33;;;4.03;;
3625;SDS011;1827;50.534;8.316;2022-12-29T19:22:59;22.60;;;3.67;;
3625;SDS011;1827;50.534;8.316;2022-12-29T19:25:28;22.10;;;3.30;;
3625;SDS011;1827;50.534;8.316;2022-12-29T19:27:55;25.53;;;4.00;;
3625;SDS011;1827;50.534;8.316;2022-12-29T19:30:24;25.63;;;4.20;;
3625;SDS011;1827;50.534;8.316;2022-12-29T19:32:54;29.13;;;4.60;;
3625;SDS011;1827;50.534;8.316;2022-12-29T19:35:22;22.53;;;3.77;;
3625;SDS011;1827;50.534;8.316;2022-12-29T19:37:52;26.13;;;5.53;;
3625;SDS011;1827;50.534;8.316;2022-12-29T19:40:24;20.60;;;4.30;;
3625;SDS011;1827;50.534;8.316;2022-12-29T19:42:56;25.90;;;3.80;;
3625;SDS011;1827;50.534;8.316;2022-12-29T19:45:22;26.23;;;4.17;;
3625;SDS011;1827;50.534;8.316;2022-12-29T19:47:51;22.87;;;3.60;;
3625;SDS011;1827;50.534;8.316;2022-12-29T19:50:21;19.53;;;3.63;;
3625;SDS011;1827;50.534;8.316;2022-12-29T19:52:46;30.20;;;4.37;;
3625;SDS011;1827;50.534;8.316;2022-12-29T19:55:15;18.10;;;3.80;;